Time;durP1;ratioP1;P1;durP2;ratioP2;P2;SDS_P1;SDS_P2;PMS_P1;PMS_P2;Temp;Humidity;BMP_temperature;BMP_pressure;BME280_temperature;BME280_humidity;BME280_pressure;Samples;Min_cycle;Max_cycle;Signal;HPM_P1;HPM_P2
2021/04/01 00:02:00;;;;;;;9.20;4.30;;;8.90;99.90;;;;;;4980682;28;20184;-78
2021/04/01 00:04:26;;;;;;;7.33;4.10;;;8.90;99.90;;;;;;4982510;28;20231;-78
2021/04/01 00:06:51;;;;;;;8.70;4.17;;;8.90;99.90;;;;;;4980750;28;20208;-78
2021/04/01 00:09:17;;;;;;;8.37;4.23;;;8.80;99.90;;;;;;4979729;28;20197;-79
2021/04/01 00:11:42;;;;;;;10.20;4.10;;;8.80;99.90;;;;;;4980099;28;20181;-78
2021/04/01 00:14:09;;;;;;;9.27;4.60;;;8.80;99.90;;;;;;4978840;28;20211;-79
2021/04/01 00:16:35;;;;;;;10.40;4.30;;;8.80;99.90;;;;;;4979001;28;20204;-78
2021/04/01 00:19:03;;;;;;;7.23;4.20;;;8.80;99.90;;;;;;4980189;28;20212;-79
2021/04/01 00:21:29;;;;;;;7.43;4.30;;;8.70;99.90;;;;;;4979624;28;20182;-78
2021/04/01 00:23:54;;;;;;;6.13;3.90;;;8.70;99.90;;;;;;4979992;28;20602;-78
2021/04/01 00:26:21;;;;;;;6.43;4.30;;;8.70;99.90;;;;;;4979814;28;20196;-78
2021/04/01 00:28:47;;;;;;;6.60;3.43;;;8.70;99.90;;;;;;4980579;28;20187;-78
2021/04/01 00:31:12;;;;;;;9.40;3.50;;;8.70;99.90;;;;;;4979406;28;20177;-78
2021/04/01 00:33:38;;;;;;;9.43;4.00;;;8.70;99.90;;;;;;4979602;28;20251;-78
2021/04/01 00:36:04;;;;;;;6.80;3.50;;;8.70;99.90;;;;;;4980100;28;20195;-78
2021/04/01 00:38:30;;;;;;;8.70;3.37;;;8.70;99.90;;;;;;4978619;28;20180;-78
2021/04/01 00:40:55;;;;;;;7.17;3.43;;;8.70;99.90;;;;;;4978720;28;20180;-79
2021/04/01 00:43:21;;;;;;;6.13;4.33;;;8.70;99.90;;;;;;4980503;28;20254;-78
2021/04/01 00:45:47;;;;;;;7.43;3.70;;;8.60;99.90;;;;;;4978329;28;20211;-79
2021/04/01 00:48:13;;;;;;;6.10;3.33;;;8.60;99.90;;;;;;4980547;28;20201;-78
2021/04/01 00:50:38;;;;;;;6.73;3.43;;;8.60;99.90;;;;;;4979253;28;20591;-78
2021/04/01 00:53:04;;;;;;;6.43;3.13;;;8.50;99.90;;;;;;4979609;28;20213;-78
2021/04/01 00:55:30;;;;;;;8.40;3.77;;;8.50;99.90;;;;;;4979383;28;20226;-78
2021/04/01 00:58:02;;;;;;;6.30;3.93;;;8.50;99.90;;;;;;4980973;28;20189;-78
2021/04/01 01:00:31;;;;;;;8.43;3.60;;;8.50;99.90;;;;;;4980237;28;20180;-79
2021/04/01 01:02:58;;;;;;;8.80;3.13;;;8.50;99.90;;;;;;4979093;28;20578;-78
2021/04/01 01:05:25;;;;;;;6.23;3.20;;;8.60;99.90;;;;;;4979306;28;20249;-78
2021/04/01 01:07:51;;;;;;;7.33;3.07;;;8.50;99.90;;;;;;4980024;28;20196;-78
2021/04/01 01:10:22;;;;;;;5.33;2.93;;;8.50;99.90;;;;;;4979710;28;20241;-78
2021/04/01 01:12:48;;;;;;;7.47;3.00;;;8.50;99.90;;;;;;4978776;28;20177;-78
2021/04/01 01:15:14;;;;;;;4.43;3.00;;;8.50;99.90;;;;;;4978428;28;20206;-78
2021/04/01 01:17:40;;;;;;;4.70;3.10;;;8.50;99.90;;;;;;4982515;28;20213;-78
2021/04/01 01:20:09;;;;;;;7.00;3.40;;;8.50;99.90;;;;;;4982852;28;20310;-78
2021/04/01 01:22:37;;;;;;;8.03;3.07;;;8.50;99.90;;;;;;4983137;28;20171;-78
2021/04/01 01:25:11;;;;;;;7.57;3.60;;;8.50;99.90;;;;;;4983521;28;20173;-78
2021/04/01 01:27:38;;;;;;;6.03;3.57;;;8.30;99.90;;;;;;4980548;28;20591;-78
2021/04/01 01:30:06;;;;;;;6.97;3.20;;;8.40;99.90;;;;;;4981979;28;20576;-78
2021/04/01 01:32:36;;;;;;;8.17;3.00;;;8.30;99.90;;;;;;4984905;28;20178;-78
2021/04/01 01:35:24;;;;;;;9.43;2.60;;;8.30;99.90;;;;;;4984202;28;20204;-78
2021/04/01 01:37:55;;;;;;;8.53;3.30;;;8.20;99.90;;;;;;4979724;28;20206;-78
2021/04/01 01:40:23;;;;;;;8.30;3.53;;;8.20;99.90;;;;;;4978947;28;20176;-78
2021/04/01 01:42:50;;;;;;;5.23;2.93;;;8.20;99.90;;;;;;4982936;28;20204;-79
2021/04/01 01:45:16;;;;;;;7.50;3.10;;;8.20;99.90;;;;;;4982660;28;20232;-79
2021/04/01 01:47:42;;;;;;;5.70;3.33;;;8.20;99.90;;;;;;4985686;28;20183;-79
2021/04/01 01:50:10;;;;;;;8.57;3.10;;;8.20;99.90;;;;;;4985760;28;20542;-78
2021/04/01 01:52:37;;;;;;;7.70;2.77;;;8.20;99.90;;;;;;4985742;28;20586;-79
2021/04/01 01:55:04;;;;;;;6.63;2.70;;;8.20;99.90;;;;;;4985282;28;20303;-79
2021/04/01 01:57:29;;;;;;;5.17;2.73;;;8.30;99.90;;;;;;4983199;28;20583;-78
2021/04/01 01:59:55;;;;;;;6.23;2.73;;;8.30;99.90;;;;;;4984375;28;20625;-78
2021/04/01 02:02:20;;;;;;;5.07;2.93;;;8.30;99.90;;;;;;4983601;28;20178;-78
2021/04/01 02:04:46;;;;;;;4.27;2.07;;;8.30;99.90;;;;;;4983442;28;20651;-79
2021/04/01 02:07:13;;;;;;;7.30;2.83;;;8.30;99.90;;;;;;4985091;28;20242;-78
2021/04/01 02:09:46;;;;;;;5.63;3.17;;;8.30;99.90;;;;;;4984481;28;20201;-78
2021/04/01 02:12:13;;;;;;;4.30;2.80;;;8.30;99.90;;;;;;4984307;28;20222;-78
2021/04/01 02:14:39;;;;;;;7.40;2.80;;;8.30;99.90;;;;;;4984976;28;20206;-78
2021/04/01 02:17:06;;;;;;;9.53;2.83;;;8.30;99.90;;;;;;4983727;28;20283;-78
2021/04/01 02:19:32;;;;;;;8.77;2.83;;;8.30;99.90;;;;;;4982604;28;20190;-78
2021/04/01 02:21:57;;;;;;;4.43;2.47;;;8.30;99.90;;;;;;4982191;28;20227;-79
2021/04/01 02:24:23;;;;;;;5.93;3.03;;;8.20;99.90;;;;;;4983930;28;20249;-78
2021/04/01 02:26:48;;;;;;;5.90;2.90;;;8.20;99.90;;;;;;4982719;28;20211;-78
2021/04/01 02:29:14;;;;;;;6.47;2.93;;;8.20;99.90;;;;;;4981041;28;20195;-78
2021/04/01 02:31:40;;;;;;;8.77;3.07;;;8.20;99.90;;;;;;4981903;28;20216;-78
2021/04/01 02:34:05;;;;;;;4.20;2.30;;;8.20;99.90;;;;;;4980270;28;20568;-78
2021/04/01 02:36:31;;;;;;;5.67;2.93;;;8.20;99.90;;;;;;4980726;28;20203;-78
2021/04/01 02:38:57;;;;;;;5.17;2.60;;;8.20;99.90;;;;;;4980380;28;20183;-78
2021/04/01 02:41:22;;;;;;;5.53;3.27;;;8.20;99.90;;;;;;4980666;28;20182;-79
2021/04/01 02:43:48;;;;;;;7.43;3.10;;;8.20;99.90;;;;;;4982559;28;20553;-79
2021/04/01 02:46:13;;;;;;;10.10;2.83;;;8.20;99.90;;;;;;4990733;28;20636;-79
2021/04/01 02:48:39;;;;;;;5.77;3.07;;;8.20;99.90;;;;;;4986270;28;20183;-78
2021/04/01 02:51:05;;;;;;;5.63;2.93;;;8.20;99.90;;;;;;4984777;28;20179;-78
2021/04/01 02:53:31;;;;;;;5.73;2.47;;;8.20;99.90;;;;;;4984792;28;20217;-78
2021/04/01 02:55:56;;;;;;;5.57;2.77;;;8.20;99.90;;;;;;4985028;28;20215;-78
2021/04/01 02:58:23;;;;;;;5.93;2.87;;;8.20;99.90;;;;;;4984873;28;20185;-78
2021/04/01 03:00:48;;;;;;;6.60;2.97;;;8.20;99.90;;;;;;4983651;28;20198;-78
2021/04/01 03:03:18;;;;;;;5.60;2.63;;;8.20;99.90;;;;;;4981941;28;20195;-78
2021/04/01 03:05:44;;;;;;;3.37;2.50;;;8.10;99.90;;;;;;4982115;28;20199;-79
2021/04/01 03:08:11;;;;;;;11.53;2.77;;;8.10;99.90;;;;;;4983293;28;20220;-78
2021/04/01 03:10:36;;;;;;;9.80;2.97;;;8.10;99.90;;;;;;4981462;28;20203;-78
2021/04/01 03:13:02;;;;;;;7.37;2.90;;;8.10;99.90;;;;;;4982540;28;20190;-78
2021/04/01 03:15:28;;;;;;;3.97;2.23;;;8.10;99.90;;;;;;4982340;28;20685;-78
2021/04/01 03:17:54;;;;;;;7.50;2.97;;;8.10;99.90;;;;;;4982941;28;20209;-79
2021/04/01 03:20:20;;;;;;;5.43;2.63;;;8.10;99.90;;;;;;4982123;28;20180;-78
2021/04/01 03:22:46;;;;;;;5.07;2.73;;;8.10;99.90;;;;;;4981928;28;20179;-78
2021/04/01 03:25:13;;;;;;;10.90;3.23;;;8.10;99.90;;;;;;4980591;28;20536;-79
2021/04/01 03:27:40;;;;;;;3.40;2.60;;;8.10;99.90;;;;;;4981854;28;20592;-78
2021/04/01 03:30:12;;;;;;;7.60;2.60;;;8.10;99.90;;;;;;4981724;28;20184;-78
2021/04/01 03:32:46;;;;;;;6.17;2.30;;;8.10;99.90;;;;;;4981351;28;20233;-78
2021/04/01 03:35:23;;;;;;;3.97;2.20;;;8.20;99.90;;;;;;4980515;28;20218;-78
2021/04/01 03:37:58;;;;;;;4.93;2.20;;;8.10;99.90;;;;;;4980378;28;20170;-79
2021/04/01 03:40:25;;;;;;;6.33;2.60;;;8.10;99.90;;;;;;4980993;28;20169;-78
2021/04/01 03:42:51;;;;;;;5.13;3.10;;;8.10;99.90;;;;;;4979759;28;20181;-78
2021/04/01 03:45:17;;;;;;;4.63;2.37;;;8.10;99.90;;;;;;4981259;28;20187;-80
2021/04/01 03:47:43;;;;;;;5.23;2.83;;;8.10;99.90;;;;;;4980485;28;20186;-79
2021/04/01 03:50:11;;;;;;;6.57;2.80;;;8.20;99.90;;;;;;4981452;28;20182;-80
2021/04/01 03:52:38;;;;;;;5.37;2.70;;;8.20;99.90;;;;;;4981068;28;20183;-80
2021/04/01 03:55:26;;;;;;;3.37;2.07;;;8.20;99.90;;;;;;4980955;28;20687;-80
2021/04/01 03:57:55;;;;;;;5.17;2.50;;;8.20;99.90;;;;;;4982065;28;20598;-78
2021/04/01 04:00:43;;;;;;;4.90;2.30;;;8.20;99.80;;;;;;4983277;28;20600;-79
2021/04/01 04:05:52;;;;;;;5.43;2.63;;;8.20;99.80;;;;;;4981654;28;20602;-79
2021/04/01 04:16:05;;;;;;;9.03;2.70;;;8.20;99.00;;;;;;4983116;28;20702;-78
2021/04/01 04:18:31;;;;;;;5.20;2.23;;;8.20;98.60;;;;;;4979140;28;20173;-78
2021/04/01 04:20:57;;;;;;;7.23;2.50;;;8.20;98.70;;;;;;4979848;28;20180;-78
2021/04/01 04:23:24;;;;;;;5.17;2.70;;;8.10;98.40;;;;;;4980046;28;20212;-79
2021/04/01 04:25:50;;;;;;;4.93;2.40;;;8.10;98.40;;;;;;4977811;28;20202;-78
2021/04/01 04:28:25;;;;;;;6.47;2.50;;;8.10;98.60;;;;;;4975343;28;20216;-78
2021/04/01 04:30:51;;;;;;;3.00;2.40;;;8.00;98.60;;;;;;4979427;28;20194;-78
2021/04/01 04:33:17;;;;;;;2.30;2.10;;;8.00;98.60;;;;;;4978652;28;20194;-78
2021/04/01 04:35:42;;;;;;;9.73;2.80;;;8.00;98.60;;;;;;4977770;28;20215;-78
2021/04/01 04:38:08;;;;;;;5.90;2.97;;;8.00;98.50;;;;;;4978786;28;20687;-78
2021/04/01 04:40:34;;;;;;;12.67;2.97;;;8.00;98.60;;;;;;4979053;28;20194;-78
2021/04/01 04:43:00;;;;;;;5.77;2.60;;;8.00;98.40;;;;;;4980315;28;20170;-78
2021/04/01 04:45:26;;;;;;;5.47;2.80;;;8.00;98.00;;;;;;4980009;28;20189;-78
2021/04/01 04:47:51;;;;;;;3.43;2.30;;;8.10;98.10;;;;;;4982794;28;20180;-79
2021/04/01 04:50:17;;;;;;;4.27;2.33;;;8.00;98.20;;;;;;4979504;28;20204;-79
2021/04/01 04:52:43;;;;;;;8.43;2.53;;;8.00;98.00;;;;;;4981462;28;20185;-79
2021/04/01 04:55:10;;;;;;;5.23;2.73;;;8.10;97.80;;;;;;4979532;28;20202;-79
2021/04/01 05:05:14;;;;;;;3.73;2.20;;;8.10;97.10;;;;;;4980262;28;20220;-79
2021/04/01 05:07:40;;;;;;;4.80;2.40;;;8.00;97.30;;;;;;4979975;28;20232;-79
2021/04/01 05:10:06;;;;;;;6.47;2.40;;;8.10;97.40;;;;;;4980972;28;20190;-78
2021/04/01 05:12:32;;;;;;;3.97;2.03;;;8.10;97.20;;;;;;4977815;28;20187;-78
2021/04/01 05:14:57;;;;;;;6.57;2.53;;;8.10;97.20;;;;;;4979363;28;20222;-79
2021/04/01 05:17:23;;;;;;;7.77;2.63;;;8.10;97.10;;;;;;4979979;28;20225;-79
2021/04/01 05:19:53;;;;;;;6.20;2.87;;;8.20;97.40;;;;;;4982374;28;20197;-79
2021/04/01 05:22:31;;;;;;;6.33;2.60;;;8.20;97.00;;;;;;4981506;28;20181;-79
2021/04/01 05:24:57;;;;;;;6.80;2.50;;;8.20;96.80;;;;;;4981154;28;20198;-79
2021/04/01 05:29:58;;;;;;;3.67;2.40;;;8.30;96.80;;;;;;4981367;28;20209;-78
2021/04/01 05:32:29;;;;;;;5.63;2.50;;;8.30;96.80;;;;;;4977896;28;20169;-78
2021/04/01 05:34:55;;;;;;;5.77;2.67;;;8.20;96.70;;;;;;4975997;28;20204;-78
2021/04/01 05:37:25;;;;;;;3.43;2.10;;;8.30;96.40;;;;;;4976456;28;20190;-78
2021/04/01 05:39:51;;;;;;;3.80;2.40;;;8.20;96.60;;;;;;4976656;28;20182;-78
2021/04/01 05:42:20;;;;;;;6.30;2.17;;;8.20;96.70;;;;;;4976097;28;20177;-78
2021/04/01 05:44:54;;;;;;;6.13;2.67;;;8.20;96.70;;;;;;4976944;28;20268;-78
2021/04/01 05:47:36;;;;;;;4.73;2.20;;;8.30;96.70;;;;;;4978070;28;20213;-78
2021/04/01 05:50:14;;;;;;;5.47;2.20;;;8.30;96.60;;;;;;4977227;28;20194;-78
2021/04/01 06:06:12;;;;;;;8.67;2.70;;;8.80;95.50;;;;;;4979914;28;20204;-78
2021/04/01 06:08:49;;;;;;;9.80;2.30;;;9.00;95.30;;;;;;4981165;28;20499;-78
2021/04/01 06:11:18;;;;;;;6.53;2.23;;;9.00;95.30;;;;;;4982188;28;20169;-78
2021/04/01 06:16:39;;;;;;;8.10;2.47;;;9.20;94.90;;;;;;4981102;28;20215;-78
2021/04/01 06:19:10;;;;;;;6.37;2.70;;;9.30;94.30;;;;;;4981819;28;20523;-78
2021/04/01 06:21:43;;;;;;;4.90;2.33;;;9.30;94.50;;;;;;4981110;28;20208;-78
2021/04/01 06:24:18;;;;;;;6.33;2.17;;;9.40;94.20;;;;;;4979161;28;20173;-78
2021/04/01 06:27:15;;;;;;;8.27;2.20;;;9.50;94.20;;;;;;4979082;28;20199;-78
2021/04/01 06:30:09;;;;;;;7.67;2.57;;;9.50;94.00;;;;;;4979831;28;20210;-78
2021/04/01 06:32:30;;;;;;;6.40;2.70;;;9.60;93.80;;;;;;4980067;28;20263;-78
2021/04/01 06:34:56;;;;;;;6.10;2.80;;;9.70;93.60;;;;;;4981265;28;20280;-78
2021/04/01 06:37:49;;;;;;;4.43;2.50;;;9.70;93.40;;;;;;4980881;28;20192;-78
2021/04/01 06:40:14;;;;;;;7.27;2.33;;;9.80;93.00;;;;;;4981217;28;20152;-78
2021/04/01 06:42:43;;;;;;;4.27;1.90;;;9.80;92.90;;;;;;4981153;28;20255;-78
2021/04/01 06:45:10;;;;;;;6.63;2.37;;;9.90;92.70;;;;;;4981647;28;20190;-78
2021/04/01 06:47:39;;;;;;;5.80;2.53;;;10.00;92.00;;;;;;4982461;28;20231;-78
2021/04/01 06:52:44;;;;;;;7.47;3.00;;;10.20;91.70;;;;;;4980920;28;20176;-78
2021/04/01 06:55:21;;;;;;;7.40;2.77;;;10.40;91.10;;;;;;4980094;28;20188;-78
2021/04/01 06:58:18;;;;;;;7.07;2.57;;;10.30;91.30;;;;;;4979009;28;20196;-78
2021/04/01 07:03:56;;;;;;;6.40;2.67;;;10.70;90.80;;;;;;4981296;28;20172;-78
2021/04/01 07:06:30;;;;;;;6.73;2.67;;;11.00;89.70;;;;;;4980496;28;20196;-78
2021/04/01 07:09:00;;;;;;;6.53;2.40;;;11.10;90.10;;;;;;4983056;28;20199;-79
2021/04/01 07:11:32;;;;;;;11.27;2.73;;;11.30;89.60;;;;;;4985255;28;20197;-79
2021/04/01 07:14:11;;;;;;;11.33;2.80;;;11.50;88.60;;;;;;4985346;28;20172;-78
2021/04/01 07:16:55;;;;;;;7.43;2.30;;;11.70;87.90;;;;;;4981647;28;20207;-79
2021/04/01 07:35:55;;;;;;;5.87;2.73;;;14.20;79.50;;;;;;4983246;28;20231;-78
2021/04/01 07:46:44;;;;;;;8.77;2.63;;;15.90;72.20;;;;;;4983716;28;20283;-78
2021/04/01 07:49:24;;;;;;;9.47;5.03;;;16.20;72.30;;;;;;4982832;28;20204;-79
2021/04/01 07:52:06;;;;;;;8.20;4.23;;;16.70;70.40;;;;;;4983458;28;20164;-79
2021/04/01 07:54:56;;;;;;;15.07;6.00;;;17.10;69.50;;;;;;4980982;28;20215;-79
2021/04/01 08:00:19;;;;;;;14.53;4.57;;;17.70;67.30;;;;;;4981912;28;20829;-79
2021/04/01 08:02:59;;;;;;;10.37;5.00;;;18.00;65.50;;;;;;4981559;28;20551;-79
2021/04/01 08:05:33;;;;;;;39.87;18.87;;;18.40;65.30;;;;;;4983597;28;20216;-79
2021/04/01 08:08:02;;;;;;;14.30;6.83;;;18.90;63.80;;;;;;4984274;28;20179;-79
2021/04/01 08:10:31;;;;;;;60.20;28.03;;;19.30;62.20;;;;;;4986111;28;20185;-79
2021/04/01 08:13:03;;;;;;;24.47;10.90;;;19.40;61.50;;;;;;4981090;28;20187;-78
2021/04/01 08:15:36;;;;;;;11.30;5.57;;;19.90;61.00;;;;;;4975934;28;20206;-77
2021/04/01 08:20:34;;;;;;;13.87;7.80;;;21.00;57.80;;;;;;4976209;28;20259;-79
2021/04/01 08:23:27;;;;;;;7.00;3.67;;;20.60;58.00;;;;;;4983543;28;20177;-79
2021/04/01 08:28:37;;;;;;;6.37;3.43;;;20.80;57.70;;;;;;4975407;28;20188;-77
2021/04/01 08:36:05;;;;;;;10.10;3.47;;;20.70;55.30;;;;;;4974782;28;20267;-76
2021/04/01 08:38:31;;;;;;;7.60;3.00;;;20.70;56.00;;;;;;4975245;28;20588;-77
2021/04/01 08:41:05;;;;;;;12.93;3.27;;;20.90;55.50;;;;;;4975036;28;20207;-77
2021/04/01 08:43:46;;;;;;;6.07;3.50;;;21.10;56.60;;;;;;4975492;28;20213;-77
2021/04/01 08:46:46;;;;;;;12.47;4.20;;;22.10;53.80;;;;;;4975114;28;20223;-77
2021/04/01 08:49:17;;;;;;;9.60;3.60;;;21.00;54.50;;;;;;4976992;28;20184;-77
2021/04/01 08:52:12;;;;;;;8.27;3.77;;;21.30;54.90;;;;;;4975072;28;20619;-76
2021/04/01 08:54:42;;;;;;;9.23;3.90;;;22.00;53.50;;;;;;4973849;28;20200;-77
2021/04/01 08:57:27;;;;;;;10.33;4.00;;;22.70;51.80;;;;;;4974845;28;20219;-77
2021/04/01 09:00:00;;;;;;;8.83;3.53;;;22.60;51.50;;;;;;4975364;28;20219;-77
2021/04/01 09:02:27;;;;;;;10.20;3.83;;;23.00;52.00;;;;;;4975325;28;20196;-77
2021/04/01 09:04:54;;;;;;;9.63;4.57;;;23.50;50.40;;;;;;4973934;28;20189;-77
2021/04/01 09:07:47;;;;;;;10.63;4.43;;;23.10;50.00;;;;;;4973910;28;20202;-77
2021/04/01 09:10:23;;;;;;;11.97;4.27;;;23.00;50.20;;;;;;4975314;28;20557;-77
2021/04/01 09:15:40;;;;;;;12.03;4.67;;;22.10;52.00;;;;;;4975057;28;20211;-77
2021/04/01 09:18:06;;;;;;;8.00;4.60;;;22.00;51.60;;;;;;4974077;28;20172;-78
2021/04/01 09:20:33;;;;;;;10.07;4.10;;;21.90;51.70;;;;;;4975350;28;20174;-77
2021/04/01 09:23:10;;;;;;;15.73;4.70;;;21.80;51.80;;;;;;4975753;28;20540;-77
2021/04/01 09:25:39;;;;;;;7.00;4.63;;;22.10;51.70;;;;;;4974712;28;20700;-77
2021/04/01 09:28:10;;;;;;;10.63;5.00;;;22.50;51.10;;;;;;4973979;28;20667;-76
2021/04/01 09:30:36;;;;;;;11.73;4.53;;;22.80;50.40;;;;;;4975279;28;20170;-77
2021/04/01 09:33:09;;;;;;;8.47;4.37;;;22.90;50.30;;;;;;4975235;28;20529;-77
2021/04/01 09:35:37;;;;;;;13.93;4.93;;;22.80;49.50;;;;;;4974342;28;20216;-77
2021/04/01 09:38:07;;;;;;;9.40;4.77;;;22.80;50.40;;;;;;4978575;28;20689;-78
2021/04/01 09:40:44;;;;;;;9.17;5.00;;;23.20;50.50;;;;;;4979698;28;20158;-77
2021/04/01 09:43:12;;;;;;;10.73;4.87;;;23.50;49.10;;;;;;4979103;28;20167;-77
2021/04/01 09:45:38;;;;;;;17.50;4.73;;;23.70;49.80;;;;;;4978851;28;20204;-77
2021/04/01 09:48:04;;;;;;;17.17;5.80;;;23.70;47.90;;;;;;4978875;28;20566;-77
2021/04/01 09:50:33;;;;;;;11.93;5.77;;;23.60;48.20;;;;;;4978844;28;20184;-76
2021/04/01 09:53:12;;;;;;;13.50;5.60;;;23.70;48.90;;;;;;4977735;28;20550;-77
2021/04/01 09:55:58;;;;;;;7.73;4.47;;;23.30;47.90;;;;;;4978243;28;20207;-77
2021/04/01 09:58:32;;;;;;;9.70;5.07;;;23.50;49.50;;;;;;4978831;28;20212;-77
2021/04/01 10:04:05;;;;;;;10.83;4.87;;;23.60;48.30;;;;;;4978767;28;20222;-77
2021/04/01 10:06:36;;;;;;;10.90;5.37;;;23.70;47.40;;;;;;4970730;28;20608;-77
2021/04/01 10:09:24;;;;;;;11.17;5.23;;;23.80;47.20;;;;;;4977034;28;20168;-77
2021/04/01 10:11:53;;;;;;;10.17;4.63;;;23.90;47.60;;;;;;4979253;28;20164;-77
2021/04/01 10:14:20;;;;;;;11.70;5.87;;;23.70;47.90;;;;;;4978450;28;20258;-77
2021/04/01 10:17:01;;;;;;;13.83;5.47;;;23.60;48.90;;;;;;4979070;28;20294;-77
2021/04/01 10:19:37;;;;;;;11.87;6.27;;;24.00;46.50;;;;;;4977969;28;20187;-77
2021/04/01 10:22:03;;;;;;;9.87;5.40;;;24.10;47.00;;;;;;4978798;28;20165;-77
2021/04/01 10:24:33;;;;;;;13.50;6.03;;;24.20;46.30;;;;;;4977286;28;20275;-77
2021/04/01 10:27:06;;;;;;;12.83;6.77;;;24.00;46.10;;;;;;4978602;28;20197;-78
2021/04/01 10:30:17;;;;;;;12.63;6.83;;;23.40;46.90;;;;;;4977298;28;20267;-77
2021/04/01 10:32:38;;;;;;;10.57;6.43;;;22.90;46.70;;;;;;4972068;28;20681;-77
2021/04/01 10:35:07;;;;;;;11.17;6.77;;;22.80;48.10;;;;;;4976610;28;20227;-77
2021/04/01 10:37:33;;;;;;;12.67;6.13;;;23.00;49.10;;;;;;4979113;28;20211;-77
2021/04/01 10:40:06;;;;;;;11.70;5.23;;;23.20;47.40;;;;;;4977971;28;20187;-77
2021/04/01 10:42:32;;;;;;;11.30;5.60;;;22.60;47.60;;;;;;4976138;28;20247;-77
2021/04/01 10:45:13;;;;;;;12.63;6.33;;;22.30;48.30;;;;;;4976939;28;20261;-77
2021/04/01 10:47:50;;;;;;;12.23;5.77;;;22.80;49.50;;;;;;4974921;28;20188;-77
2021/04/01 10:50:18;;;;;;;10.73;5.87;;;23.30;50.00;;;;;;4977044;28;20185;-77
2021/04/01 10:52:44;;;;;;;11.67;5.83;;;23.70;47.10;;;;;;4977780;28;20515;-77
2021/04/01 10:55:12;;;;;;;9.90;5.70;;;23.90;46.90;;;;;;4977270;28;20215;-77
2021/04/01 10:57:38;;;;;;;12.87;5.20;;;24.00;46.80;;;;;;4976569;28;20210;-74
2021/04/01 11:00:12;;;;;;;11.87;6.23;;;24.50;47.80;;;;;;4977045;28;20571;-74
2021/04/01 11:02:50;;;;;;;9.17;4.23;;;24.90;49.00;;;;;;4975363;28;20650;-74
2021/04/01 11:05:20;;;;;;;11.43;5.33;;;25.20;47.00;;;;;;4976592;28;20165;-73
2021/04/01 11:08:07;;;;;;;10.83;5.03;;;25.20;45.10;;;;;;4977460;28;20189;-74
2021/04/01 11:10:33;;;;;;;9.33;4.40;;;25.40;46.00;;;;;;4976873;28;20289;-76
2021/04/01 11:13:02;;;;;;;16.03;5.27;;;25.70;50.50;;;;;;4976752;28;20210;-74
2021/04/01 11:15:41;;;;;;;23.17;5.67;;;26.30;46.30;;;;;;4976386;28;20675;-74
2021/04/01 11:18:14;;;;;;;7.17;4.87;;;25.90;46.30;;;;;;4976788;28;20164;-75
2021/04/01 11:20:42;;;;;;;10.47;4.80;;;25.70;44.30;;;;;;4976246;28;20150;-74
2021/04/01 11:23:22;;;;;;;12.00;5.43;;;25.60;46.40;;;;;;4976455;28;20170;-75
2021/04/01 11:25:52;;;;;;;16.57;5.67;;;25.90;44.40;;;;;;4974863;28;20296;-75
2021/04/01 11:28:18;;;;;;;11.47;5.03;;;26.10;48.70;;;;;;4976061;28;20170;-77
2021/04/01 11:30:51;;;;;;;10.53;5.20;;;26.70;47.20;;;;;;4976597;28;20182;-76
2021/04/01 11:33:25;;;;;;;11.83;5.03;;;26.70;42.50;;;;;;4976090;28;20162;-76
2021/04/01 11:36:13;;;;;;;9.03;4.80;;;26.40;43.40;;;;;;4975959;28;20210;-76
2021/04/01 11:38:47;;;;;;;14.30;5.87;;;26.20;43.50;;;;;;4976394;28;20220;-76
2021/04/01 11:41:14;;;;;;;9.03;5.37;;;26.40;44.20;;;;;;4976397;28;20181;-76
2021/04/01 11:43:40;;;;;;;11.43;5.07;;;26.80;42.10;;;;;;4975779;28;20182;-75
2021/04/01 11:46:18;;;;;;;9.70;4.50;;;27.00;45.20;;;;;;4975493;28;20195;-76
2021/04/01 11:48:45;;;;;;;8.07;4.43;;;27.40;42.10;;;;;;4975641;28;20656;-76
2021/04/01 11:51:34;;;;;;;10.07;4.33;;;27.70;42.30;;;;;;4975696;28;20659;-76
2021/04/01 11:54:01;;;;;;;9.33;4.20;;;27.50;42.30;;;;;;4975646;28;20179;-76
2021/04/01 11:56:41;;;;;;;9.40;4.70;;;27.70;41.70;;;;;;4975566;28;20290;-76
2021/04/01 11:59:17;;;;;;;8.30;4.43;;;27.80;42.30;;;;;;4974183;28;20206;-77
2021/04/01 12:01:57;;;;;;;8.97;4.60;;;27.70;41.10;;;;;;4975442;28;20623;-75
2021/04/01 12:04:25;;;;;;;7.90;4.47;;;26.80;40.50;;;;;;4975583;28;20184;-76
2021/04/01 12:06:52;;;;;;;6.83;4.03;;;26.10;41.50;;;;;;4975428;28;20272;-75
2021/04/01 12:09:18;;;;;;;9.13;4.30;;;25.90;41.50;;;;;;4975274;28;20180;-76
2021/04/01 12:11:45;;;;;;;11.73;4.50;;;25.80;41.80;;;;;;4976005;28;20177;-75
2021/04/01 12:14:16;;;;;;;7.20;3.70;;;26.00;41.00;;;;;;4975229;28;20181;-76
2021/04/01 12:16:42;;;;;;;8.77;3.60;;;26.30;41.80;;;;;;4975267;28;20244;-77
2021/04/01 12:19:07;;;;;;;8.90;3.77;;;26.90;43.90;;;;;;4975210;28;20654;-76
2021/04/01 12:21:34;;;;;;;7.23;3.53;;;26.90;40.80;;;;;;4975185;28;20180;-76
2021/04/01 12:24:03;;;;;;;4.90;3.17;;;27.10;40.80;;;;;;4975200;28;20173;-76
2021/04/01 12:26:30;;;;;;;8.03;2.73;;;26.80;40.10;;;;;;4973839;28;20211;-77
2021/04/01 12:29:00;;;;;;;6.03;3.47;;;26.50;41.40;;;;;;4975100;28;20177;-76
2021/04/01 12:31:29;;;;;;;7.50;3.60;;;26.70;41.30;;;;;;4975247;28;20170;-76
2021/04/01 12:33:55;;;;;;;7.73;4.10;;;26.10;42.60;;;;;;4975020;28;20305;-75
2021/04/01 12:36:41;;;;;;;8.77;3.70;;;26.10;42.00;;;;;;4989528;28;20303;-76
2021/04/01 12:39:10;;;;;;;9.30;3.60;;;25.70;41.90;;;;;;4973791;28;20627;-75
2021/04/01 12:41:39;;;;;;;10.77;3.73;;;25.70;42.70;;;;;;4974665;28;20534;-76
2021/04/01 12:44:05;;;;;;;9.00;3.93;;;25.80;42.60;;;;;;4973444;28;20178;-76
2021/04/01 12:46:42;;;;;;;6.03;3.43;;;26.00;42.50;;;;;;4974829;28;20189;-76
2021/04/01 12:49:11;;;;;;;7.63;4.10;;;26.90;42.20;;;;;;4974817;28;20542;-76
2021/04/01 12:51:48;;;;;;;9.43;3.60;;;27.20;41.40;;;;;;4975658;28;20176;-77
2021/04/01 12:54:16;;;;;;;7.30;3.57;;;27.70;39.60;;;;;;4974262;28;20179;-77
2021/04/01 12:56:48;;;;;;;5.43;3.40;;;28.20;40.50;;;;;;4973608;28;20269;-78
2021/04/01 12:59:24;;;;;;;9.57;2.83;;;28.60;38.90;;;;;;4971838;28;20203;-78
2021/04/01 13:01:59;;;;;;;5.73;3.00;;;28.60;39.00;;;;;;4975714;28;20183;-77
2021/04/01 13:04:26;;;;;;;6.57;3.03;;;28.40;38.70;;;;;;4975659;28;20150;-78
2021/04/01 13:11:50;;;;;;;7.03;3.13;;;27.90;40.00;;;;;;4977460;28;20233;-77
2021/04/01 13:14:18;;;;;;;6.67;3.43;;;27.80;42.00;;;;;;4979338;28;20198;-77
2021/04/01 13:16:43;;;;;;;9.10;3.47;;;28.30;39.30;;;;;;4978451;28;20213;-77
2021/04/01 13:19:09;;;;;;;7.53;3.77;;;28.30;40.60;;;;;;4978834;28;20710;-77
2021/04/01 13:26:47;;;;;;;10.30;3.30;;;27.90;40.90;;;;;;4980429;28;20200;-78
2021/04/01 13:29:14;;;;;;;6.40;3.20;;;28.60;40.20;;;;;;4980806;28;20175;-77
2021/04/01 13:32:01;;;;;;;6.30;3.10;;;29.60;38.60;;;;;;4979762;28;20178;-77
2021/04/01 13:34:34;;;;;;;6.47;3.27;;;29.20;37.30;;;;;;4980983;28;20277;-77
2021/04/01 13:39:46;;;;;;;8.40;2.97;;;28.00;39.90;;;;;;4980096;28;20180;-77
2021/04/01 13:42:17;;;;;;;6.23;2.93;;;27.60;40.20;;;;;;4979366;28;20167;-77
2021/04/01 13:47:16;;;;;;;6.20;2.67;;;27.10;41.00;;;;;;4978537;28;20598;-77
2021/04/01 13:49:43;;;;;;;9.27;3.27;;;26.90;41.20;;;;;;4978278;28;20173;-78
2021/04/01 13:52:34;;;;;;;4.97;2.87;;;26.90;41.20;;;;;;4978202;28;20184;-77
2021/04/01 14:11:13;;;;;;;8.03;3.90;;;29.10;39.10;;;;;;4980072;28;20176;-78
2021/04/01 14:13:39;;;;;;;4.47;3.07;;;28.60;38.60;;;;;;4981984;28;20184;-78
2021/04/01 14:16:05;;;;;;;4.90;2.70;;;28.40;39.90;;;;;;4982856;28;20208;-78
2021/04/01 14:18:32;;;;;;;5.73;2.80;;;27.90;38.40;;;;;;4979035;28;20652;-78
2021/04/01 14:21:01;;;;;;;4.43;3.00;;;27.60;38.10;;;;;;4978666;28;20165;-77
2021/04/01 14:23:32;;;;;;;5.07;2.80;;;27.00;40.90;;;;;;4980905;28;20641;-78
2021/04/01 14:26:04;;;;;;;8.77;2.90;;;26.90;40.50;;;;;;4978973;28;20204;-78
2021/04/01 14:28:30;;;;;;;5.10;3.00;;;27.40;40.30;;;;;;4976736;28;20180;-77
2021/04/01 14:30:57;;;;;;;6.33;2.63;;;26.80;38.00;;;;;;4977553;28;20185;-78
2021/04/01 14:33:25;;;;;;;5.97;2.97;;;26.30;39.50;;;;;;4978135;28;20264;-77
2021/04/01 14:35:51;;;;;;;3.80;2.63;;;25.30;40.50;;;;;;4977138;28;20612;-77
2021/04/01 14:38:18;;;;;;;9.13;2.90;;;24.90;40.50;;;;;;4978037;28;20172;-77
2021/04/01 14:40:54;;;;;;;7.90;3.00;;;25.50;40.40;;;;;;4978634;28;20175;-76
2021/04/01 14:43:24;;;;;;;6.67;2.40;;;26.20;40.50;;;;;;4976210;28;20176;-77
2021/04/01 14:45:51;;;;;;;6.93;2.57;;;26.90;39.90;;;;;;4977862;28;20642;-77
2021/04/01 14:48:16;;;;;;;5.87;2.70;;;26.00;38.90;;;;;;5006421;28;20184;-77
2021/04/01 14:50:43;;;;;;;6.20;2.60;;;24.90;40.80;;;;;;5015384;28;20662;-76
2021/04/01 14:53:18;;;;;;;6.73;3.20;;;24.90;41.20;;;;;;5015266;28;20210;-76
2021/04/01 14:55:43;;;;;;;4.13;2.50;;;25.50;40.00;;;;;;5014101;28;20238;-77
2021/04/01 14:58:10;;;;;;;5.83;3.10;;;25.50;40.30;;;;;;5015177;28;20185;-77
2021/04/01 15:00:40;;;;;;;7.33;3.13;;;25.30;39.80;;;;;;5014149;28;20198;-76
2021/04/01 15:03:06;;;;;;;5.67;2.77;;;24.80;40.20;;;;;;5015784;28;20175;-76
2021/04/01 15:05:35;;;;;;;9.90;3.07;;;24.50;40.20;;;;;;5014798;28;20179;-76